.
WxDataArchive / Data Records for 2011-09-04
2011-09-03 September 2011 2011-09-05

Data Records for Sunday, 04 September 2011

Time	Temp	Chill	HIndex	Humid	Dewpt	 Wind 	HiWind	WindDir	Rain 	Barom 
-----	----	-----	------	-----	-----	------	------	-------	-----	----- 
00:00	69.9	69.9	69.9	84	64.8	0	1	315	0.00	29.815 
00:05	70.1	70.1	70.1	84	65.0	0	1	315	0.00	29.815 
00:10	70.1	70.1	70.1	84	65.0	0	1	315	0.00	29.815 
00:15	70.1	70.1	70.1	84	65.0	0	1	315	0.00	29.839 
00:20	70.1	70.1	70.1	84	65.0	0	1	315	0.00	29.839 
00:25	70.1	70.1	70.1	84	65.0	0	1	315	0.00	29.839 
00:30	70.1	70.1	70.1	84	65.0	0	1	315	0.00	29.818 
00:35	70.3	70.3	70.3	84	65.2	0	3	315	0.00	29.818 
00:40	70.6	70.6	70.6	83	65.2	0	2	315	0.00	29.818 
00:45	70.8	70.8	70.8	82	65.0	0	0	---	0.00	29.807 
00:50	70.8	70.8	70.8	83	65.4	0	0	---	0.00	29.807 
00:55	70.6	70.6	70.6	83	65.2	0	0	---	0.00	29.807 
01:00	70.4	70.4	70.4	84	65.3	1	4	315	0.00	29.816 
01:05	70.4	70.4	70.4	84	65.3	1	4	112	0.00	29.816 
01:10	70.4	70.4	70.4	84	65.3	0	2	135	0.00	29.816 
01:15	70.4	70.4	70.4	84	65.3	0	2	135	0.00	29.814 
01:20	70.3	70.3	70.3	85	65.6	0	0	---	0.00	29.814 
01:25	70.1	70.1	70.1	84	65.0	0	1	135	0.00	29.814 
01:30	70.1	70.1	70.1	85	65.4	0	1	135	0.00	29.821 
01:35	70.1	70.1	70.1	84	65.0	0	2	135	0.00	29.821 
01:40	70.3	70.3	70.3	84	65.2	0	3	135	0.00	29.821 
01:45	70.4	70.4	70.4	84	65.3	0	2	292	0.00	29.831 
01:50	70.4	70.4	70.4	85	65.7	0	1	292	0.00	29.831 
01:55	70.3	70.3	70.3	85	65.6	0	1	292	0.00	29.831 
02:00	70.3	70.3	70.3	86	65.9	0	1	292	0.00	29.824 
02:05	70.1	70.1	70.1	86	65.7	0	0	---	0.00	29.824 
02:10	69.9	69.9	69.9	87	65.8	0	0	---	0.00	29.824 
02:15	69.9	69.9	69.9	87	65.8	0	0	---	0.01	29.823 
02:20	69.9	69.9	69.9	88	66.2	0	0	---	0.00	29.823 
02:25	69.6	69.6	69.6	88	65.9	0	0	---	0.00	29.823 
02:30	69.6	69.6	69.6	89	66.2	0	0	---	0.00	29.824 
02:35	69.6	69.6	69.6	89	66.2	0	0	---	0.00	29.824 
02:40	69.4	69.4	69.4	89	66.0	0	0	---	0.00	29.824 
02:45	69.3	69.3	69.3	90	66.2	0	0	---	0.00	29.818 
02:50	69.1	69.1	69.1	90	66.0	0	0	---	0.00	29.818 
02:55	69.1	69.1	69.1	90	66.0	0	0	---	0.00	29.818 
03:00	68.9	68.9	68.9	91	66.2	0	0	---	0.00	29.815 
03:05	68.9	68.9	68.9	91	66.2	0	0	---	0.00	29.815 
03:10	68.9	68.9	68.9	91	66.2	0	0	---	0.00	29.815 
03:15	68.9	68.9	68.9	92	66.5	0	0	---	0.00	29.823 
03:20	68.9	68.9	68.9	92	66.5	0	0	---	0.00	29.823 
03:25	68.9	68.9	68.9	92	66.5	0	0	---	0.00	29.823 
03:30	68.9	68.9	68.9	92	66.5	0	1	292	0.00	29.827 
03:35	68.9	68.9	68.9	92	66.5	0	2	292	0.00	29.827 
03:40	68.9	68.9	68.9	92	66.5	0	1	292	0.00	29.827 
03:45	69.1	69.1	69.1	92	66.7	0	1	292	0.00	29.808 
03:50	69.1	69.1	69.1	91	66.4	0	1	292	0.00	29.808 
03:55	69.3	69.3	69.3	91	66.6	0	0	---	0.00	29.808 
04:00	69.4	69.4	69.4	91	66.7	0	0	---	0.00	29.808 
04:05	69.4	69.4	69.4	90	66.3	0	0	---	0.00	29.808 
04:10	69.4	69.4	69.4	90	66.3	0	0	---	0.00	29.808 
04:15	69.4	69.4	69.4	90	66.3	0	0	---	0.00	29.801 
04:20	69.4	69.4	69.4	90	66.3	0	0	---	0.00	29.801 
04:25	69.4	69.4	69.4	90	66.3	0	0	---	0.00	29.801 
04:30	69.4	69.4	69.4	90	66.3	0	0	---	0.00	29.795 
04:35	69.3	69.3	69.3	90	66.2	0	0	---	0.00	29.795 
04:40	69.3	69.3	69.3	90	66.2	0	0	---	0.00	29.795 
04:45	69.1	69.1	69.1	90	66.0	0	0	---	0.00	29.795 
04:50	69.1	69.1	69.1	90	66.0	0	0	---	0.00	29.795 
04:55	69.1	69.1	69.1	90	66.0	0	1	292	0.00	29.795 
05:00	69.1	69.1	69.1	90	66.0	0	1	292	0.00	29.804 
05:05	68.9	68.9	68.9	90	65.8	0	1	292	0.00	29.804 
05:10	68.9	68.9	68.9	90	65.8	0	1	292	0.00	29.804 
05:15	68.9	68.9	68.9	90	65.8	0	0	---	0.00	29.798 
05:20	68.8	68.8	68.8	90	65.7	0	1	292	0.00	29.798 
05:25	68.8	68.8	68.8	90	65.7	0	0	---	0.00	29.798 
05:30	68.8	68.8	68.8	89	65.4	0	1	292	0.00	29.808 
05:35	68.8	68.8	68.8	89	65.4	0	0	---	0.00	29.808 
05:40	68.9	68.9	68.9	89	65.5	0	1	292	0.00	29.808 
05:45	68.9	68.9	68.9	89	65.5	0	1	292	0.00	29.810 
05:50	68.9	68.9	68.9	89	65.5	0	0	---	0.00	29.810 
05:55	69.1	69.1	69.1	89	65.7	0	2	292	0.00	29.810 
06:00	69.1	69.1	69.1	89	65.7	0	2	292	0.00	29.815 
06:05	69.3	69.3	69.3	89	65.9	0	1	292	0.00	29.815 
06:10	69.3	69.3	69.3	89	65.9	0	1	292	0.00	29.815 
06:15	69.3	69.3	69.3	89	65.9	0	1	292	0.00	29.821 
06:20	69.3	69.3	69.3	89	65.9	0	1	292	0.00	29.821 
06:25	69.3	69.3	69.3	89	65.9	0	1	292	0.00	29.821 
06:30	69.3	69.3	69.3	89	65.9	0	2	292	0.00	29.829 
06:35	69.3	69.3	69.3	89	65.9	0	1	292	0.00	29.829 
06:40	69.3	69.3	69.3	89	65.9	0	1	292	0.00	29.829 
06:45	69.1	69.1	69.1	89	65.7	0	1	292	0.00	29.831 
06:50	69.1	69.1	69.1	90	66.0	0	2	292	0.00	29.831 
06:55	69.1	69.1	69.1	90	66.0	0	2	292	0.00	29.831 
07:00	68.9	68.9	68.9	90	65.8	0	3	292	0.00	29.833 
07:05	68.9	68.9	68.9	90	65.8	0	1	292	0.00	29.833 
07:10	68.8	68.8	68.8	90	65.7	0	2	292	0.00	29.833 
07:15	68.8	68.8	68.8	90	65.7	0	2	292	0.00	29.837 
07:20	68.8	68.8	68.8	90	65.7	0	1	292	0.00	29.837 
07:25	68.8	68.8	68.8	90	65.7	0	0	---	0.00	29.837 
07:30	68.8	68.8	68.8	89	65.4	0	1	292	0.00	29.840 
07:35	68.8	68.8	68.8	89	65.4	0	1	292	0.00	29.840 
07:40	68.6	68.6	68.6	89	65.2	0	0	---	0.00	29.840 
07:45	68.6	68.6	68.6	89	65.2	0	0	---	0.00	29.834 
07:50	68.6	68.6	68.6	89	65.2	0	0	---	0.00	29.834 
07:55	68.6	68.6	68.6	89	65.2	0	1	292	0.00	29.834 
08:00	68.8	68.8	68.8	89	65.4	0	1	292	0.00	29.835 
08:05	68.8	68.8	68.8	89	65.4	0	1	292	0.00	29.835 
08:10	68.9	68.9	68.9	89	65.5	0	1	292	0.00	29.835 
08:15	68.9	68.9	68.9	89	65.5	0	1	292	0.00	29.842 
08:20	69.1	69.1	69.1	89	65.7	0	2	292	0.00	29.842 
08:25	69.1	69.1	69.1	89	65.7	1	2	292	0.00	29.842 
08:30	69.3	69.3	69.3	89	65.9	0	2	292	0.00	29.846 
08:35	69.4	69.4	69.4	88	65.7	1	3	292	0.00	29.846 
08:40	69.6	69.6	69.6	88	65.9	1	3	292	0.00	29.846 
08:45	69.6	69.6	69.6	88	65.9	0	2	292	0.00	29.850 
08:50	69.8	69.8	69.8	88	66.1	0	2	292	0.00	29.850 
08:55	69.8	69.8	69.8	88	66.1	0	1	292	0.00	29.850 
09:00	69.8	69.8	69.8	88	66.1	0	1	292	0.00	29.846 
09:05	69.9	69.9	69.9	88	66.2	0	2	292	0.00	29.846 
09:10	69.9	69.9	69.9	88	66.2	1	3	292	0.00	29.846 
09:15	69.9	69.9	69.9	88	66.2	1	3	292	0.00	29.849 
09:20	70.1	70.1	70.1	88	66.4	1	2	292	0.00	29.849 
09:25	70.1	70.1	70.1	88	66.4	1	2	292	0.00	29.849 
09:30	70.1	70.1	70.1	88	66.4	1	3	292	0.00	29.845 
09:35	70.3	70.3	70.3	88	66.6	1	3	292	0.00	29.845 
09:40	70.4	70.4	70.4	88	66.7	1	2	292	0.00	29.845 
09:45	70.6	70.6	70.6	88	66.9	1	3	292	0.00	29.854 
09:50	70.9	70.9	70.9	87	66.8	1	2	292	0.00	29.854 
09:55	71.1	71.1	71.1	86	66.7	1	4	292	0.00	29.854 
10:00	71.3	71.3	71.3	85	66.5	2	4	292	0.00	29.856 
10:05	71.6	71.6	71.6	85	66.8	1	5	315	0.00	29.856 
10:10	71.6	71.6	71.6	84	66.5	2	6	270	0.00	29.856 
10:15	71.8	71.8	71.8	84	66.7	1	4	270	0.00	29.860 
10:20	72.1	72.1	72.1	84	67.0	1	3	270	0.00	29.860 
10:25	72.3	72.3	72.3	83	66.8	1	3	270	0.00	29.860 
10:30	72.3	72.3	72.3	82	66.5	1	3	270	0.00	29.859 
10:35	72.1	72.1	72.1	81	65.9	2	4	270	0.00	29.859 
10:40	72.1	72.1	72.1	81	65.9	1	3	292	0.00	29.859 
10:45	72.0	72.0	72.0	82	66.2	1	3	292	0.00	29.856 
10:50	71.8	71.8	71.8	82	66.0	1	3	292	0.00	29.856 
10:55	71.8	71.8	71.8	83	66.3	0	2	292	0.00	29.856 
11:00	71.8	71.8	71.8	83	66.3	0	1	292	0.00	29.851 
11:05	72.0	72.0	72.0	83	66.5	0	2	292	0.00	29.851 
11:10	72.0	72.0	72.0	83	66.5	0	2	292	0.00	29.851 
11:15	72.1	72.1	72.1	83	66.6	1	3	270	0.00	29.848 
11:20	72.3	72.3	72.3	83	66.8	0	1	270	0.00	29.848 
11:25	72.5	72.5	72.5	83	67.0	1	3	270	0.00	29.848 
11:30	72.7	72.7	72.7	83	67.2	0	2	270	0.00	29.842 
11:35	72.8	72.8	72.8	81	66.6	0	1	270	0.00	29.842 
11:40	73.2	73.2	73.2	81	67.0	0	3	270	0.00	29.842 
11:45	73.5	73.5	73.5	80	66.9	0	2	270	0.00	29.841 
11:50	73.9	73.9	73.9	79	67.0	0	1	270	0.00	29.841 
11:55	74.0	74.0	74.0	78	66.7	1	2	270	0.00	29.841 
12:00	74.2	74.2	74.2	77	66.5	1	3	270	0.00	29.839 
12:05	74.6	74.6	74.6	78	67.3	1	3	270	0.00	29.839 
12:10	74.6	74.6	74.6	77	66.9	2	3	270	0.00	29.839 
12:15	74.6	74.6	74.6	77	66.9	2	4	292	0.00	29.843 
12:20	74.7	74.7	74.7	76	66.6	2	4	292	0.00	29.843 
12:25	74.9	74.9	74.9	76	66.8	2	4	292	0.00	29.843 
12:30	74.9	74.9	74.9	76	66.8	3	6	315	0.00	29.842 
12:35	74.9	74.9	74.9	77	67.2	2	5	270	0.00	29.842 
12:40	75.1	75.1	76.2	76	67.0	1	3	338	0.00	29.842 
12:45	75.8	75.8	77.1	75	67.3	2	5	270	0.00	29.827 
12:50	76.0	76.0	77.5	73	66.7	2	4	292	0.00	29.827 
12:55	75.8	75.8	77.4	71	65.7	2	4	270	0.00	29.827 
13:00	75.6	75.6	77.1	72	65.9	3	5	270	0.00	29.838 
13:05	75.3	75.3	76.9	71	65.2	2	4	338	0.00	29.838 
13:10	75.1	75.1	76.7	71	65.0	3	6	270	0.00	29.838 
13:15	75.1	75.1	76.6	72	65.4	2	5	270	0.00	29.840 
13:20	74.9	74.9	74.9	72	65.2	1	3	270	0.00	29.840 
13:25	74.9	74.9	74.9	72	65.2	1	5	270	0.00	29.840 
13:30	75.1	75.1	76.6	72	65.4	1	3	270	0.00	29.839 
13:35	75.1	75.1	76.8	70	64.6	3	5	270	0.00	29.839 
13:40	74.9	74.9	74.9	72	65.2	3	6	270	0.00	29.839 
13:45	74.7	74.7	74.7	72	65.1	2	5	270	0.00	29.843 
13:50	74.7	74.7	74.7	72	65.1	2	4	270	0.00	29.843 
13:55	74.6	74.6	74.6	73	65.4	2	4	270	0.00	29.843 
14:00	74.4	74.4	74.4	73	65.2	2	4	292	0.00	29.839 
14:05	74.4	74.4	74.4	74	65.6	2	4	292	0.00	29.839 
14:10	74.2	74.2	74.2	74	65.4	2	5	292	0.00	29.839 
14:15	74.2	74.2	74.2	74	65.4	2	5	270	0.00	29.841 
14:20	74.2	74.2	74.2	75	65.8	1	4	270	0.00	29.841 
14:25	74.0	74.0	74.0	75	65.6	3	5	270	0.00	29.841 
14:30	73.9	73.9	73.9	76	65.8	3	6	315	0.00	29.842 
14:35	73.0	73.0	73.0	78	65.7	4	7	270	0.00	29.842 
14:40	71.5	71.5	71.5	82	65.7	2	5	270	0.01	29.842 
14:45	70.8	70.8	70.8	84	65.7	0	3	338	0.00	29.856 
14:50	70.1	70.1	70.1	85	65.4	1	5	338	0.00	29.856 
14:55	69.8	69.8	69.8	87	65.7	0	2	338	0.00	29.856 
15:00	69.6	69.6	69.6	88	65.9	1	5	248	0.00	29.858 
15:05	69.6	69.6	69.6	88	65.9	1	3	248	0.00	29.858 
15:10	69.4	69.4	69.4	89	66.0	1	4	248	0.00	29.858 
15:15	69.4	69.4	69.4	89	66.0	1	4	315	0.00	29.858 
15:20	69.3	69.3	69.3	89	65.9	1	4	270	0.00	29.858 
15:25	69.3	69.3	69.3	90	66.2	2	4	270	0.01	29.858 
15:30	69.1	69.1	69.1	90	66.0	2	5	270	0.00	29.859 
15:35	68.9	68.9	68.9	89	65.5	3	9	270	0.00	29.859 
15:40	68.9	68.9	68.9	89	65.5	1	3	270	0.00	29.859 
15:45	69.1	69.1	69.1	89	65.7	2	6	338	0.00	29.859 
15:50	69.1	69.1	69.1	89	65.7	2	7	315	0.00	29.859 
15:55	69.1	69.1	69.1	89	65.7	1	4	315	0.00	29.859 
16:00	69.1	69.1	69.1	88	65.4	1	3	315	0.00	29.856 
16:05	69.1	69.1	69.1	88	65.4	2	4	315	0.00	29.856 
16:10	69.1	69.1	69.1	87	65.1	1	5	270	0.00	29.856 
16:15	69.3	69.3	69.3	86	64.9	1	4	270	0.00	29.852 
16:20	69.6	69.6	69.6	86	65.2	1	4	270	0.00	29.852 
16:25	69.8	69.8	69.8	84	64.7	1	3	270	0.00	29.852 
16:30	69.8	69.8	69.8	83	64.4	1	4	292	0.00	29.847 
16:35	69.8	69.8	69.8	81	63.7	2	5	270	0.00	29.847 
16:40	70.1	70.1	70.1	81	64.0	1	4	292	0.00	29.847 
16:45	70.1	70.1	70.1	80	63.6	1	4	292	0.00	29.838 
16:50	70.1	70.1	70.1	79	63.3	2	4	292	0.00	29.838 
16:55	70.3	70.3	70.3	79	63.5	2	4	270	0.00	29.838 
17:00	70.3	70.3	70.3	78	63.1	2	4	292	0.00	29.844 
17:05	70.3	70.3	70.3	77	62.7	2	5	292	0.00	29.844 
17:10	70.3	70.3	70.3	76	62.4	2	5	248	0.00	29.844 
17:15	70.4	70.4	70.4	76	62.5	1	4	292	0.00	29.842 
17:20	70.4	70.4	70.4	73	61.3	2	4	292	0.00	29.842 
17:25	70.6	70.6	70.6	73	61.5	2	5	292	0.00	29.842 
17:30	70.6	70.6	70.6	71	60.7	3	7	315	0.00	29.838 
17:35	70.9	70.9	70.9	69	60.2	3	6	292	0.00	29.838 
17:40	71.3	71.3	71.3	68	60.2	2	5	270	0.00	29.838 
17:45	71.5	71.5	71.5	66	59.5	3	7	270	0.00	29.842 
17:50	71.5	71.5	71.5	66	59.5	4	7	270	0.00	29.842 
17:55	71.6	71.6	71.6	65	59.2	2	5	270	0.00	29.842 
18:00	71.6	71.6	71.6	64	58.8	2	6	270	0.00	29.841 
18:05	71.5	71.5	71.5	63	58.2	3	6	292	0.00	29.841 
18:10	71.5	71.5	71.5	62	57.8	2	7	292	0.00	29.841 
18:15	71.3	71.3	71.3	62	57.6	2	4	315	0.00	29.843 
18:20	71.3	71.3	71.3	62	57.6	1	4	315	0.00	29.843 
18:25	71.1	71.1	71.1	61	57.0	2	5	270	0.00	29.843 
18:30	71.3	71.3	71.3	61	57.1	1	4	270	0.00	29.845 
18:35	71.3	71.3	71.3	61	57.1	1	4	270	0.00	29.845 
18:40	71.3	71.3	71.3	60	56.7	3	7	270	0.00	29.845 
18:45	71.5	71.5	71.5	59	56.4	2	7	270	0.00	29.849 
18:50	71.5	71.5	71.5	59	56.4	2	10	270	0.00	29.849 
18:55	71.3	71.3	71.3	58	55.7	2	6	270	0.00	29.849 
19:00	71.1	71.1	71.1	58	55.6	2	5	292	0.00	29.857 
19:05	70.8	70.8	70.8	58	55.3	2	5	315	0.00	29.857 
19:10	70.4	70.4	70.4	57	54.4	3	6	292	0.00	29.857 
19:15	70.3	70.3	70.3	58	54.8	1	3	315	0.00	29.859 
19:20	70.1	70.1	70.1	58	54.6	2	4	315	0.00	29.859 
19:25	69.9	69.9	69.9	58	54.4	2	5	315	0.00	29.859 
19:30	69.6	69.6	69.6	58	54.2	1	3	315	0.00	29.859 
19:35	69.4	69.4	69.4	58	54.0	1	4	270	0.00	29.859 
19:40	69.3	69.3	69.3	57	53.4	2	5	292	0.00	29.859 
19:45	68.9	68.9	68.9	57	53.0	2	5	292	0.00	29.863 
19:50	68.8	68.8	68.8	57	52.9	2	6	292	0.00	29.863 
19:55	68.4	68.4	68.4	57	52.6	2	6	315	0.00	29.863 
20:00	68.3	68.3	68.3	58	52.9	1	2	270	0.00	29.872 
20:05	67.9	67.9	67.9	58	52.6	2	5	292	0.00	29.872 
20:10	67.8	67.8	67.8	58	52.5	2	4	315	0.00	29.872 
20:15	67.6	67.6	67.6	58	52.3	2	7	292	0.00	29.877 
20:20	67.3	67.3	67.3	58	52.0	1	4	292	0.00	29.877 
20:25	67.1	67.1	67.1	59	52.3	1	4	292	0.00	29.877 
20:30	66.9	66.9	66.9	59	52.1	1	4	292	0.00	29.881 
20:35	66.6	66.6	66.6	60	52.3	0	2	292	0.00	29.881 
20:40	66.4	66.4	66.4	61	52.5	1	4	292	0.00	29.881 
20:45	66.3	66.3	66.3	62	52.9	0	2	292	0.00	29.891 
20:50	66.0	66.0	66.0	62	52.6	1	3	292	0.00	29.891 
20:55	65.8	65.8	65.8	63	52.8	0	1	292	0.00	29.891 
21:00	65.6	65.6	65.6	64	53.1	0	2	292	0.00	29.899 
21:05	65.5	65.5	65.5	64	53.0	0	2	292	0.00	29.899 
21:10	65.3	65.3	65.3	65	53.2	0	3	292	0.00	29.899 
21:15	65.0	65.0	65.0	65	52.9	0	2	292	0.00	29.906 
21:20	64.8	64.8	64.8	66	53.2	0	2	292	0.00	29.906 
21:25	64.7	64.7	64.7	66	53.1	1	4	270	0.00	29.906 
21:30	64.5	64.5	64.5	65	52.5	1	4	315	0.00	29.911 
21:35	64.3	64.3	64.3	66	52.7	0	1	315	0.00	29.911 
21:40	64.2	64.2	64.2	66	52.6	0	2	315	0.00	29.911 
21:45	64.0	64.0	64.0	66	52.4	0	1	315	0.00	29.915 
21:50	63.9	63.9	63.9	66	52.3	0	1	315	0.00	29.915 
21:55	63.7	63.7	63.7	66	52.1	0	1	315	0.00	29.915 
22:00	63.5	63.5	63.5	66	51.9	0	1	315	0.00	29.915 
22:05	63.4	63.4	63.4	66	51.8	0	1	315	0.00	29.915 
22:10	63.2	63.2	63.2	67	52.1	0	1	315	0.00	29.915 
22:15	63.1	63.1	63.1	67	52.0	0	2	315	0.00	29.914 
22:20	62.9	62.9	62.9	67	51.8	0	1	315	0.00	29.914 
22:25	62.7	62.7	62.7	68	52.0	0	1	315	0.00	29.914 
22:30	62.6	62.6	62.6	68	51.9	0	1	315	0.00	29.913 
22:35	62.4	62.4	62.4	68	51.7	0	1	315	0.00	29.913 
22:40	62.4	62.4	62.4	69	52.1	0	0	---	0.00	29.913 
22:45	62.3	62.3	62.3	69	52.0	0	1	315	0.00	29.914 
22:50	62.1	62.1	62.1	69	51.8	0	1	315	0.00	29.914 
22:55	62.0	62.0	62.0	69	51.7	0	1	315	0.00	29.914 
23:00	61.8	61.8	61.8	70	51.9	0	1	315	0.00	29.914 
23:05	61.8	61.8	61.8	70	51.9	0	1	315	0.00	29.914 
23:10	61.6	61.6	61.6	71	52.1	0	1	315	0.00	29.914 
23:15	61.5	61.5	61.5	71	52.0	0	1	315	0.00	29.912 
23:20	61.3	61.3	61.3	71	51.8	0	0	---	0.00	29.912 
23:25	61.3	61.3	61.3	72	52.2	0	1	315	0.00	29.912 
23:30	61.2	61.2	61.2	72	52.1	0	1	315	0.00	29.914 
23:35	61.2	61.2	61.2	73	52.5	0	1	315	0.00	29.914 
23:40	61.0	61.0	61.0	73	52.3	0	1	315	0.00	29.914 
23:45	60.9	60.9	60.9	73	52.2	0	1	315	0.00	29.912 
23:50	60.7	60.7	60.7	74	52.4	0	0	---	0.00	29.912 
23:55	60.5	60.5	60.5	75	52.5	0	0	---	0.00	29.912 

CoCoRaHS
IN-AL-39
A2 Web Hosting
Creative Commons License
GoDaddy
search engine by freefind advanced

loaded 2018-11-21 01:17:25 • last modified 2010-11-18 10:43:29
Privacy PolicyDisclaimer
• wx.awcolley.com is powered by PmWiki v.2002016 •
• all content (unless otherwise noted) © 2018 A W Colley